createdAt,value
2019-05-29T00:01:43.800Z,13.20
2019-05-29T00:04:18.461Z,13.10
2019-05-29T00:06:51.951Z,13.00
2019-05-29T00:09:25.958Z,13.00
2019-05-29T00:11:59.369Z,13.10
2019-05-29T00:14:32.950Z,13.10
2019-05-29T00:17:06.501Z,13.10
2019-05-29T00:19:40.025Z,13.10
2019-05-29T00:22:14.563Z,13.10
2019-05-29T00:24:48.901Z,13.10
2019-05-29T00:27:22.635Z,13.10
2019-05-29T00:29:56.257Z,13.10
2019-05-29T00:32:30.030Z,13.10
2019-05-29T00:35:03.649Z,13.00
2019-05-29T00:37:37.429Z,13.10
2019-05-29T00:40:11.015Z,13.00
2019-05-29T00:42:44.595Z,13.10
2019-05-29T00:45:18.192Z,13.10
2019-05-29T00:47:51.810Z,13.00
2019-05-29T00:50:26.110Z,13.00
2019-05-29T00:53:00.565Z,13.00
2019-05-29T00:55:34.276Z,13.00
2019-05-29T00:58:08.774Z,13.00
2019-05-29T01:00:41.474Z,13.00
2019-05-29T01:03:15.943Z,12.90
2019-05-29T01:05:49.347Z,12.90
2019-05-29T01:08:22.875Z,12.90
2019-05-29T01:10:57.379Z,12.90
2019-05-29T01:13:31.178Z,12.90
2019-05-29T01:16:04.766Z,12.90
2019-05-29T01:18:38.464Z,12.90
2019-05-29T01:21:12.160Z,12.80
2019-05-29T01:23:45.809Z,12.80
2019-05-29T01:26:20.785Z,12.70
2019-05-29T01:28:53.391Z,12.60
2019-05-29T01:31:27.040Z,12.60
2019-05-29T01:34:01.564Z,12.40
2019-05-29T01:36:35.885Z,12.40
2019-05-29T01:39:09.468Z,12.40
2019-05-29T01:41:43.176Z,12.30
2019-05-29T01:44:17.381Z,12.30
2019-05-29T01:46:50.392Z,12.10
2019-05-29T01:49:24.707Z,11.90
2019-05-29T01:51:59.138Z,11.90
2019-05-29T01:54:32.813Z,11.80
2019-05-29T01:57:06.404Z,11.80
2019-05-29T01:59:39.922Z,11.90
2019-05-29T02:02:13.520Z,11.90
2019-05-29T02:04:47.280Z,11.90
2019-05-29T02:07:22.430Z,12.00
2019-05-29T02:09:54.632Z,12.00
2019-05-29T02:12:28.395Z,12.00
2019-05-29T02:15:01.970Z,12.00
2019-05-29T02:17:35.521Z,12.00
2019-05-29T02:20:09.866Z,12.00
2019-05-29T02:22:44.399Z,12.00
2019-05-29T02:25:19.254Z,12.00
2019-05-29T02:27:51.923Z,12.00
2019-05-29T02:30:28.030Z,12.10
2019-05-29T02:32:59.838Z,12.00
2019-05-29T02:35:33.519Z,12.00
2019-05-29T02:38:07.840Z,11.80
2019-05-29T02:40:41.580Z,11.80
2019-05-29T02:43:15.116Z,11.80
2019-05-29T02:45:54.177Z,11.80
2019-05-29T02:48:23.236Z,11.90
2019-05-29T02:50:56.181Z,11.90
2019-05-29T02:53:30.830Z,11.90
2019-05-29T02:56:04.285Z,12.00
2019-05-29T02:58:38.592Z,11.90
2019-05-29T03:01:12.193Z,11.90
2019-05-29T03:03:45.855Z,11.90
2019-05-29T03:06:19.644Z,11.80
2019-05-29T03:08:53.192Z,11.80
2019-05-29T03:11:27.240Z,11.80
2019-05-29T03:14:01.316Z,11.70
2019-05-29T03:16:35.118Z,11.60
2019-05-29T03:19:08.643Z,11.70
2019-05-29T03:21:42.315Z,11.70
2019-05-29T03:24:15.961Z,11.70
2019-05-29T03:26:49.462Z,11.80
2019-05-29T03:29:23.162Z,11.80
2019-05-29T03:31:56.728Z,11.80
2019-05-29T03:34:34.949Z,11.90
2019-05-29T03:37:03.900Z,11.80
2019-05-29T03:39:38.562Z,11.70
2019-05-29T03:42:11.370Z,11.90
2019-05-29T03:44:44.957Z,11.90
2019-05-29T03:47:18.553Z,12.00
2019-05-29T03:49:52.164Z,12.00
2019-05-29T03:52:26.307Z,11.90
2019-05-29T03:54:59.512Z,12.00
2019-05-29T03:57:33.907Z,12.00
2019-05-29T04:00:06.826Z,12.00
2019-05-29T04:02:40.520Z,12.00
2019-05-29T04:05:14.324Z,12.00
2019-05-29T04:07:48.038Z,12.00
2019-05-29T04:10:29.486Z,12.10
2019-05-29T04:13:02.933Z,12.10
2019-05-29T04:15:38.554Z,12.10
2019-05-29T04:18:10.288Z,12.00
2019-05-29T04:20:44.953Z,12.20
2019-05-29T04:23:18.789Z,12.10
2019-05-29T04:25:53.120Z,12.10
2019-05-29T04:28:27.922Z,12.10
2019-05-29T04:31:00.291Z,12.20
2019-05-29T04:33:35.324Z,12.30
2019-05-29T04:36:09.180Z,12.40
2019-05-29T04:38:42.801Z,12.40
2019-05-29T04:41:16.543Z,12.30
2019-05-29T04:43:51.390Z,12.30
2019-05-29T04:46:24.998Z,12.50
2019-05-29T04:48:58.597Z,12.50
2019-05-29T04:51:33.093Z,12.50
2019-05-29T04:54:06.608Z,12.40
2019-05-29T04:56:41.127Z,12.40
2019-05-29T04:59:15.383Z,12.40
2019-05-29T05:01:49.210Z,12.40
2019-05-29T05:04:23.755Z,12.30
2019-05-29T05:06:57.323Z,12.40
2019-05-29T05:09:31.237Z,12.40
2019-05-29T05:12:04.698Z,12.50
2019-05-29T05:14:38.353Z,12.50
2019-05-29T05:17:25.351Z,12.50
2019-05-29T05:19:46.732Z,12.50
2019-05-29T05:22:20.473Z,12.50
2019-05-29T05:24:54.017Z,12.70
2019-05-29T05:27:27.557Z,12.70
2019-05-29T05:30:01.284Z,12.90
2019-05-29T05:32:36.867Z,13.00
2019-05-29T05:35:09.343Z,13.00
2019-05-29T05:37:43.107Z,12.90
2019-05-29T05:40:16.709Z,12.90
2019-05-29T05:42:50.354Z,13.00
2019-05-29T05:45:24.815Z,13.00
2019-05-29T05:47:58.652Z,12.90
2019-05-29T05:50:33.291Z,12.90
2019-05-29T05:53:06.132Z,12.90
2019-05-29T05:55:39.867Z,12.90
2019-05-29T05:58:13.327Z,12.90
2019-05-29T06:00:46.853Z,12.90
2019-05-29T06:03:20.950Z,12.90
2019-05-29T06:05:55.101Z,12.90
2019-05-29T06:08:28.666Z,12.90
2019-05-29T06:11:02.944Z,12.90
2019-05-29T06:13:38.314Z,12.80
2019-05-29T06:16:10.863Z,12.80
2019-05-29T06:18:44.431Z,12.80
2019-05-29T06:21:18.112Z,12.80
2019-05-29T06:23:51.768Z,12.90
2019-05-29T06:26:25.437Z,12.90
2019-05-29T06:28:59.182Z,12.90
2019-05-29T06:31:33.323Z,13.00
2019-05-29T06:34:06.535Z,13.10
2019-05-29T06:36:41.529Z,13.10
2019-05-29T06:39:14.050Z,13.00
2019-05-29T06:41:47.855Z,13.10
2019-05-29T06:44:21.609Z,13.10
2019-05-29T06:46:55.230Z,13.20
2019-05-29T06:49:28.813Z,13.20
2019-05-29T06:52:02.365Z,13.10
2019-05-29T06:54:37.845Z,13.30
2019-05-29T06:57:10.545Z,13.20
2019-05-29T06:59:44.730Z,13.30
2019-05-29T07:02:17.734Z,13.50
2019-05-29T07:04:51.271Z,13.50
2019-05-29T07:07:25.003Z,13.50
2019-05-29T07:09:58.659Z,13.50
2019-05-29T07:12:32.485Z,13.50
2019-05-29T07:15:07.606Z,13.50
2019-05-29T07:17:42.572Z,13.50
2019-05-29T07:20:15.835Z,13.70
2019-05-29T07:22:49.612Z,13.80
2019-05-29T07:25:23.142Z,13.80
2019-05-29T07:27:57.717Z,13.90
2019-05-29T07:30:31.350Z,13.90
2019-05-29T07:33:05.135Z,13.80
2019-05-29T07:35:39.456Z,13.80
2019-05-29T07:38:12.977Z,13.80
2019-05-29T07:40:48.145Z,13.90
2019-05-29T07:43:20.323Z,14.00
2019-05-29T07:45:53.879Z,14.00
2019-05-29T07:48:28.215Z,14.10
2019-05-29T07:51:07.127Z,14.10
2019-05-29T07:53:35.502Z,14.10
2019-05-29T07:56:22.106Z,14.10
2019-05-29T07:58:48.923Z,14.10
2019-05-29T08:01:17.117Z,14.10
2019-05-29T08:03:50.782Z,14.10
2019-05-29T08:06:24.459Z,14.20
2019-05-29T08:08:58.067Z,14.20
2019-05-29T08:11:31.822Z,14.40
2019-05-29T08:14:05.385Z,14.30
2019-05-29T08:16:39.774Z,14.40
2019-05-29T08:19:13.255Z,14.60
2019-05-29T08:21:46.979Z,14.80
2019-05-29T08:24:24.619Z,15.00
2019-05-29T08:26:54.521Z,15.30
2019-05-29T08:29:28.176Z,15.50
2019-05-29T08:32:01.757Z,15.70
2019-05-29T08:34:36.202Z,15.60
2019-05-29T08:37:09.850Z,15.60
2019-05-29T08:39:43.507Z,15.90
2019-05-29T08:42:23.053Z,16.20
2019-05-29T08:44:51.863Z,16.20
2019-05-29T08:47:26.349Z,16.30
2019-05-29T08:50:17.490Z,16.30
2019-05-29T08:52:33.844Z,16.20
2019-05-29T08:55:07.608Z,16.20
2019-05-29T08:57:42.540Z,16.40
2019-05-29T09:00:15.887Z,16.40
2019-05-29T09:02:51.054Z,16.60
2019-05-29T09:05:23.467Z,16.60
2019-05-29T09:07:57.702Z,16.80
2019-05-29T09:10:32.067Z,16.90
2019-05-29T09:13:06.154Z,17.10
2019-05-29T09:15:39.790Z,17.10
2019-05-29T09:18:14.989Z,17.30
2019-05-29T09:21:02.281Z,17.10
2019-05-29T09:23:21.201Z,17.00
2019-05-29T09:25:55.647Z,17.20
2019-05-29T09:28:29.747Z,17.30
2019-05-29T09:31:03.369Z,17.30
2019-05-29T09:33:37.786Z,17.40
2019-05-29T09:36:12.238Z,17.30
2019-05-29T09:38:46.635Z,17.30
2019-05-29T09:41:22.300Z,17.30
2019-05-29T09:43:59.526Z,17.30
2019-05-29T09:46:29.192Z,17.20
2019-05-29T09:49:03.659Z,17.10
2019-05-29T09:51:37.318Z,17.10
2019-05-29T09:54:10.980Z,16.90
2019-05-29T09:56:44.549Z,17.00
2019-05-29T09:59:18.128Z,17.10
2019-05-29T10:01:54.151Z,17.20
2019-05-29T10:04:25.171Z,17.40
2019-05-29T10:06:59.609Z,17.90
2019-05-29T10:09:33.072Z,17.90
2019-05-29T10:12:07.384Z,18.20
2019-05-29T10:14:42.019Z,18.20
2019-05-29T10:17:15.564Z,18.50
2019-05-29T10:19:49.227Z,18.60
2019-05-29T10:22:23.027Z,18.50
2019-05-29T10:24:58.020Z,18.30
2019-05-29T10:27:31.308Z,18.30
2019-05-29T10:30:06.080Z,18.10
2019-05-29T10:32:42.421Z,17.50
2019-05-29T10:35:14.925Z,17.30
2019-05-29T10:37:50.452Z,17.00
2019-05-29T10:40:23.354Z,17.00
2019-05-29T10:42:57.371Z,17.00
2019-05-29T10:45:30.937Z,17.00
2019-05-29T10:48:04.711Z,17.10
2019-05-29T10:50:38.476Z,17.10
2019-05-29T10:53:12.067Z,17.10
2019-05-29T10:55:48.497Z,17.30
2019-05-29T10:58:22.718Z,17.30
2019-05-29T11:00:57.315Z,17.40
2019-05-29T11:03:30.904Z,17.40
2019-05-29T11:06:04.673Z,17.60
2019-05-29T11:08:38.755Z,17.80
2019-05-29T11:11:13.168Z,17.90
2019-05-29T11:13:46.897Z,18.00
2019-05-29T11:16:21.378Z,18.20
2019-05-29T11:18:55.602Z,18.10
2019-05-29T11:21:30.513Z,18.20
2019-05-29T11:24:04.250Z,18.20
2019-05-29T11:26:38.034Z,18.20
2019-05-29T11:29:12.463Z,18.10
2019-05-29T11:31:48.551Z,18.20
2019-05-29T11:34:22.175Z,18.30
2019-05-29T11:36:56.216Z,18.40
2019-05-29T11:39:29.433Z,18.40
2019-05-29T11:42:03.984Z,18.40
2019-05-29T11:44:37.517Z,18.40
2019-05-29T11:47:11.312Z,18.30
2019-05-29T11:49:45.589Z,18.30
2019-05-29T11:52:24.704Z,18.30
2019-05-29T11:54:56.535Z,18.40
2019-05-29T11:57:26.340Z,18.50
2019-05-29T12:00:07.082Z,18.60
2019-05-29T12:02:33.807Z,18.80
2019-05-29T12:05:09.068Z,18.60
2019-05-29T12:07:42.730Z,18.60
2019-05-29T12:10:16.345Z,18.50
2019-05-29T12:12:51.261Z,18.30
2019-05-29T12:15:23.840Z,18.10
2019-05-29T12:18:20.842Z,18.00
2019-05-29T12:20:32.042Z,17.90
2019-05-29T12:23:22.982Z,18.10
2019-05-29T12:25:39.555Z,18.00
2019-05-29T12:28:13.311Z,18.00
2019-05-29T12:30:46.968Z,18.10
2019-05-29T12:33:20.556Z,18.00
2019-05-29T12:35:54.913Z,17.80
2019-05-29T12:38:27.963Z,17.60
2019-05-29T12:41:01.912Z,17.40
2019-05-29T12:43:35.369Z,17.30
2019-05-29T12:46:09.734Z,16.90
2019-05-29T12:48:43.420Z,16.90
2019-05-29T12:51:17.120Z,16.70
2019-05-29T12:53:50.799Z,16.40
2019-05-29T12:56:25.114Z,16.10
2019-05-29T12:58:58.789Z,16.10
2019-05-29T13:01:33.216Z,16.20
2019-05-29T13:04:06.964Z,16.20
2019-05-29T13:06:41.845Z,16.30
2019-05-29T13:09:15.626Z,16.30
2019-05-29T13:11:49.264Z,16.40
2019-05-29T13:14:22.896Z,16.40
2019-05-29T13:16:56.761Z,16.60
2019-05-29T13:19:31.023Z,16.60
2019-05-29T13:22:06.281Z,16.90
2019-05-29T13:24:39.337Z,17.10
2019-05-29T13:27:13.991Z,16.90
2019-05-29T13:29:47.723Z,17.10
2019-05-29T13:32:21.522Z,17.40
2019-05-29T13:34:55.993Z,18.10
2019-05-29T13:37:29.715Z,18.10
2019-05-29T13:40:08.320Z,18.30
2019-05-29T13:42:39.801Z,18.00
2019-05-29T13:45:18.440Z,18.00
2019-05-29T13:47:47.182Z,18.00
2019-05-29T13:50:22.012Z,18.00
2019-05-29T13:52:57.018Z,18.20
2019-05-29T13:55:29.464Z,18.30
2019-05-29T13:58:03.895Z,18.10
2019-05-29T14:00:37.570Z,18.10
2019-05-29T14:03:11.182Z,18.00
2019-05-29T14:05:44.767Z,17.90
2019-05-29T14:08:18.355Z,17.80
2019-05-29T14:10:53.004Z,17.70
2019-05-29T14:13:26.611Z,17.50
2019-05-29T14:16:02.743Z,17.30
2019-05-29T14:18:37.343Z,17.30
2019-05-29T14:21:11.661Z,17.30
2019-05-29T14:23:45.352Z,17.30
2019-05-29T14:26:19.034Z,17.30
2019-05-29T14:28:52.887Z,17.50
2019-05-29T14:31:26.571Z,17.80
2019-05-29T14:34:00.938Z,18.00
2019-05-29T14:36:33.891Z,18.30
2019-05-29T14:39:07.765Z,18.50
2019-05-29T14:41:41.806Z,18.40
2019-05-29T14:44:17.217Z,18.30
2019-05-29T14:46:49.039Z,18.30
2019-05-29T14:49:26.550Z,18.30
2019-05-29T14:51:56.462Z,18.30
2019-05-29T14:54:41.200Z,18.30
2019-05-29T14:57:19.486Z,18.20
2019-05-29T14:59:39.085Z,18.10
2019-05-29T15:02:21.655Z,18.10
2019-05-29T15:04:46.643Z,18.20
2019-05-29T15:07:22.947Z,18.20
2019-05-29T15:09:55.118Z,18.20
2019-05-29T15:12:28.652Z,18.20
2019-05-29T15:15:02.446Z,18.10
2019-05-29T15:17:36.247Z,18.10
2019-05-29T15:20:10.430Z,18.20
2019-05-29T15:22:43.483Z,18.10
2019-05-29T15:25:23.688Z,17.90
2019-05-29T15:27:51.019Z,17.80
2019-05-29T15:30:24.643Z,17.70
2019-05-29T15:32:58.278Z,17.70
2019-05-29T15:35:32.055Z,17.80
2019-05-29T15:38:06.668Z,17.80
2019-05-29T15:40:39.448Z,17.80
2019-05-29T15:43:13.088Z,17.80
2019-05-29T15:45:46.882Z,17.80
2019-05-29T15:48:20.652Z,17.80
2019-05-29T15:50:54.220Z,17.80
2019-05-29T15:53:27.828Z,18.00
2019-05-29T15:56:16.992Z,18.20
2019-05-29T15:58:36.568Z,18.10
2019-05-29T16:01:11.585Z,18.20
2019-05-29T16:03:45.524Z,17.80
2019-05-29T16:06:19.988Z,17.70
2019-05-29T16:08:53.695Z,17.70
2019-05-29T16:11:27.440Z,17.70
2019-05-29T16:14:01.231Z,17.50
2019-05-29T16:16:36.413Z,17.40
2019-05-29T16:19:10.234Z,17.40
2019-05-29T16:21:44.106Z,17.40
2019-05-29T16:24:19.002Z,17.40
2019-05-29T16:26:51.438Z,17.30
2019-05-29T16:29:25.210Z,17.10
2019-05-29T16:31:58.962Z,16.90
2019-05-29T16:34:33.291Z,16.80
2019-05-29T16:37:06.946Z,16.70
2019-05-29T16:39:40.472Z,16.80
2019-05-29T16:42:15.779Z,16.60
2019-05-29T16:44:48.422Z,16.60
2019-05-29T16:47:22.658Z,16.60
2019-05-29T16:49:55.713Z,16.60
2019-05-29T16:52:29.296Z,16.60
2019-05-29T16:55:05.299Z,16.40
2019-05-29T16:57:39.143Z,16.30
2019-05-29T17:00:13.560Z,16.00
2019-05-29T17:02:46.486Z,15.90
2019-05-29T17:05:20.555Z,15.90
2019-05-29T17:07:53.772Z,15.90
2019-05-29T17:10:37.246Z,15.70
2019-05-29T17:13:16.612Z,15.50
2019-05-29T17:15:49.297Z,15.50
2019-05-29T17:18:23.127Z,15.30
2019-05-29T17:20:56.780Z,15.30
2019-05-29T17:23:30.430Z,15.30
2019-05-29T17:26:10.669Z,15.20
2019-05-29T17:28:37.624Z,15.00
2019-05-29T17:31:14.623Z,15.10
2019-05-29T17:33:47.120Z,15.10
2019-05-29T17:36:21.096Z,15.10
2019-05-29T17:38:54.336Z,15.10
2019-05-29T17:41:27.923Z,15.20
2019-05-29T17:44:02.636Z,15.10
2019-05-29T17:46:37.389Z,15.10
2019-05-29T17:49:11.502Z,15.20
2019-05-29T17:51:45.058Z,15.20
2019-05-29T17:54:19.725Z,15.20
2019-05-29T17:56:53.281Z,15.20
2019-05-29T17:59:26.943Z,15.10
2019-05-29T18:02:00.723Z,15.10
2019-05-29T18:04:34.525Z,15.00
2019-05-29T18:07:08.120Z,15.10
2019-05-29T18:09:41.924Z,15.10
2019-05-29T18:12:17.003Z,15.20
2019-05-29T18:14:49.589Z,15.20
2019-05-29T18:17:23.560Z,15.20
2019-05-29T18:19:56.689Z,15.20
2019-05-29T18:22:31.018Z,15.20
2019-05-29T18:25:05.454Z,15.20
2019-05-29T18:27:39.190Z,15.20
2019-05-29T18:30:12.932Z,15.10
2019-05-29T18:32:46.691Z,15.10
2019-05-29T18:35:20.749Z,15.10
2019-05-29T18:37:54.027Z,15.10
2019-05-29T18:40:28.415Z,15.10
2019-05-29T18:43:01.119Z,15.10
2019-05-29T18:45:34.863Z,15.10
2019-05-29T18:48:08.437Z,15.10
2019-05-29T18:50:44.399Z,15.20
2019-05-29T18:53:15.740Z,15.10
2019-05-29T18:55:49.288Z,15.10
2019-05-29T18:58:24.086Z,15.00
2019-05-29T19:00:57.435Z,15.00
2019-05-29T19:03:32.613Z,14.90
2019-05-29T19:06:05.744Z,14.70
2019-05-29T19:08:40.070Z,14.60
2019-05-29T19:11:13.789Z,14.60
2019-05-29T19:13:47.355Z,14.50
2019-05-29T19:16:21.921Z,14.30
2019-05-29T19:18:55.361Z,14.30
2019-05-29T19:21:28.979Z,14.20
2019-05-29T19:24:02.524Z,14.10
2019-05-29T19:26:36.855Z,14.00
2019-05-29T19:29:10.077Z,14.00
2019-05-29T19:31:45.202Z,13.90
2019-05-29T19:34:18.708Z,13.90
2019-05-29T19:36:53.083Z,13.80
2019-05-29T19:39:27.888Z,13.70
2019-05-29T19:42:01.095Z,13.70
2019-05-29T19:44:34.710Z,13.70
2019-05-29T19:47:08.193Z,13.70
2019-05-29T19:49:42.685Z,13.60
2019-05-29T19:52:16.431Z,13.50
2019-05-29T19:54:50.228Z,13.50
2019-05-29T19:57:23.983Z,13.40
2019-05-29T19:59:57.731Z,13.40
2019-05-29T20:02:32.440Z,13.40
2019-05-29T20:05:05.185Z,13.30
2019-05-29T20:07:38.985Z,13.20
2019-05-29T20:10:12.877Z,13.10
2019-05-29T20:12:46.555Z,13.10
2019-05-29T20:15:20.177Z,13.10
2019-05-29T20:17:53.836Z,13.10
2019-05-29T20:20:28.177Z,13.10
2019-05-29T20:23:01.049Z,13.00
2019-05-29T20:25:35.016Z,13.00
2019-05-29T20:28:08.503Z,12.90
2019-05-29T20:30:42.734Z,12.90
2019-05-29T20:33:15.839Z,12.90
2019-05-29T20:35:50.180Z,12.80
2019-05-29T20:38:24.749Z,12.70
2019-05-29T20:40:58.433Z,12.70
2019-05-29T20:43:33.390Z,12.60
2019-05-29T20:46:06.305Z,12.50
2019-05-29T20:48:39.850Z,12.50
2019-05-29T20:51:13.583Z,12.50
2019-05-29T20:53:47.372Z,12.50
2019-05-29T20:56:21.100Z,12.50
2019-05-29T20:58:54.759Z,12.50
2019-05-29T21:01:28.385Z,12.50
2019-05-29T21:04:03.048Z,12.40
2019-05-29T21:06:36.751Z,12.40
2019-05-29T21:09:10.373Z,12.40
2019-05-29T21:11:44.031Z,12.40
2019-05-29T21:14:18.547Z,12.40
2019-05-29T21:16:52.144Z,12.40
2019-05-29T21:19:26.632Z,12.30
2019-05-29T21:22:00.265Z,12.30
2019-05-29T21:24:34.585Z,12.30
2019-05-29T21:27:07.564Z,12.30
2019-05-29T21:29:41.984Z,12.20
2019-05-29T21:32:15.489Z,12.20
2019-05-29T21:34:49.038Z,12.10
2019-05-29T21:37:22.584Z,12.10
2019-05-29T21:39:56.387Z,12.10
2019-05-29T21:42:30.220Z,12.00
2019-05-29T21:45:04.690Z,12.00
2019-05-29T21:47:38.982Z,11.90
2019-05-29T21:50:11.872Z,11.90
2019-05-29T21:52:47.561Z,11.80
2019-05-29T21:55:20.528Z,11.80
2019-05-29T21:57:54.966Z,11.80
2019-05-29T22:00:44.594Z,11.80
2019-05-29T22:03:18.520Z,11.70
2019-05-29T22:05:52.205Z,11.60
2019-05-29T22:08:25.850Z,11.50
2019-05-29T22:10:59.639Z,11.50
2019-05-29T22:13:33.878Z,11.50
2019-05-29T22:16:07.608Z,11.40
2019-05-29T22:18:41.222Z,11.50
2019-05-29T22:21:15.583Z,11.50
2019-05-29T22:23:49.239Z,11.50
2019-05-29T22:26:23.771Z,11.50
2019-05-29T22:29:05.953Z,11.60
2019-05-29T22:31:31.144Z,11.60
2019-05-29T22:34:04.856Z,11.50
2019-05-29T22:36:38.512Z,11.30
2019-05-29T22:39:12.081Z,11.20
2019-05-29T22:41:46.446Z,11.10
2019-05-29T22:44:20.067Z,11.10
2019-05-29T22:46:53.811Z,11.10
2019-05-29T22:49:27.311Z,11.10
2019-05-29T22:52:02.110Z,11.10
2019-05-29T22:54:34.712Z,11.10
2019-05-29T22:57:08.491Z,11.00
2019-05-29T22:59:42.245Z,11.10
2019-05-29T23:02:16.793Z,11.00
2019-05-29T23:04:50.412Z,11.00
2019-05-29T23:07:24.066Z,10.90
2019-05-29T23:09:58.328Z,10.90
2019-05-29T23:12:31.281Z,10.90
2019-05-29T23:15:04.846Z,11.00
2019-05-29T23:17:38.633Z,10.90
2019-05-29T23:20:12.327Z,10.90
2019-05-29T23:22:45.920Z,11.00
2019-05-29T23:25:20.324Z,11.00
2019-05-29T23:27:54.893Z,11.10
2019-05-29T23:30:30.450Z,11.10
2019-05-29T23:33:03.215Z,11.00
2019-05-29T23:35:35.766Z,10.90
2019-05-29T23:38:09.362Z,10.80
2019-05-29T23:40:43.662Z,10.70
2019-05-29T23:43:17.995Z,10.70
2019-05-29T23:45:53.276Z,10.70
2019-05-29T23:48:25.899Z,10.70
2019-05-29T23:50:59.595Z,10.80
2019-05-29T23:53:33.194Z,10.80
2019-05-29T23:56:07.252Z,10.80
2019-05-29T23:58:41.788Z,10.90
